Saturday, September 22, 2018, 10:54 PM EDT
Back to Local

KGON, Groton/new London Airport

Location: Groton, CT, United States Lat: 41.333
Local Time: 10:54 PM EDT ( 2:54 GMT) Lon: -72.05
Time Zone: US/Eastern Elev: 9 ft

Show me the last for .
Show Decoded

2018-09-22 21:56 METAR KGON 230156Z 02006KT 10SM CLR 16/09 A3019 RMK AO2 SLP224 T01610089 $ =
2018-09-22 20:56 METAR KGON 230056Z 01007KT 10SM CLR 17/09 A3019 RMK AO2 SLP221 T01670094 =
2018-09-22 19:56 METAR KGON 222356Z 36007KT 10SM CLR 17/10 A3017 RMK AO2 SLP217 T01670100 10228
                 20167 51016 =
2018-09-22 18:56 METAR KGON 222256Z 36007KT 10SM CLR 18/09 A3016 RMK AO2 SLP212 T01780094 =
2018-09-22 17:56 METAR KGON 222156Z 35007KT 10SM CLR 19/09 A3014 RMK AO2 SLP207 T01890094 =
2018-09-22 16:56 METAR KGON 222056Z 35009KT 10SM CLR 21/12 A3013 RMK AO2 SLP201 T02110117 53008 =
2018-09-22 15:56 METAR KGON 221956Z 35009KT 10SM CLR 22/12 A3012 RMK AO2 SLP199 T02170117 =
2018-09-22 14:56 METAR KGON 221856Z 34009KT 10SM CLR 22/12 A3011 RMK AO2 SLP195 T02220117 =
2018-09-22 13:56 METAR KGON 221756Z 33011KT 10SM CLR 22/11 A3010 RMK AO2 SLP193 T02170111 10228
                 20200 51008 =
2018-09-22 12:56 METAR KGON 221656Z 35013G16KT 10SM CLR 22/11 A3010 RMK AO2 SLP192 T02220111 =
2018-09-22 11:56 METAR KGON 221556Z 35011KT 10SM CLR 22/11 A3009 RMK AO2 PK WND 35026/1507 SLP189
                 T02170106 =
2018-09-22 10:56 METAR KGON 221456Z 31013G20KT 10SM CLR 22/11 A3008 RMK AO2 SLP185 T02170111
                 51027 =
2018-09-22 09:56 METAR KGON 221356Z 33015G26KT 10SM CLR 21/11 A3006 RMK AO2 PK WND 34027/1333
                 SLP178 T02110111 =
2018-09-22 08:56 METAR KGON 221256Z 33012G19KT 10SM CLR 20/14 A3003 RMK AO2 PK WND 32026/1157
                 SLP168 T02000139 =
2018-09-22 07:56 METAR KGON 221156Z 33018G25KT 10SM FEW022 21/16 A3000 RMK AO2 SLP158 60000
                 T02110161 10228 20211 53035 =
2018-09-22 06:56 METAR KGON 221056Z 29005KT 10SM CLR 22/21 A2995 RMK AO2 SLP142 T02220206 =
2018-09-22 06:06 METAR KGON 221006Z AUTO 28011G18KT 10SM SCT014 23/21 A2992 RMK AO2 T02280206 =
2018-09-22 05:56 METAR KGON 220956Z AUTO 27009KT 10SM BKN015 23/21 A2992 RMK AO2 SLP130 T02280206
                 =
2018-09-22 05:18 METAR KGON 220918Z AUTO 25011G19KT 10SM BKN017 OVC025 23/21 A2991 RMK AO2
                 T02280211 =
2018-09-22 04:56 METAR KGON 220856Z AUTO 25010G17KT 10SM BKN012 BKN017 OVC022 22/21 A2990 RMK AO2
                 RAB28E52 SLP124 P0000 60000 T02220211 56015 =
2018-09-22 04:47 METAR KGON 220847Z AUTO 25012G20KT 5SM -RA BR OVC012 22/21 A2990 RMK AO2 RAB28
                 P0000 T02220211 =
2018-09-22 03:56 METAR KGON 220756Z AUTO 23013G21KT 10SM OVC016 23/20 A2990 RMK AO2 SLP125
                 T02280200 =
2018-09-22 02:56 METAR KGON 220656Z AUTO 22016KT 10SM OVC027 22/20 A2991 RMK AO2 SLP128 T02220200
                 =
2018-09-22 02:39 METAR KGON 220639Z AUTO 22016KT 10SM OVC029 22/20 A2992 RMK AO2 T02220200 =
2018-09-22 01:56 METAR KGON 220556Z AUTO 22013KT 10SM OVC032 22/19 A2994 RMK AO2 SLP139 T02220194
                 10222 20211 58021 =
2018-09-22 00:56 METAR KGON 220456Z AUTO 21016KT 10SM OVC039 22/19 A2997 RMK AO2 SLP147 T02220189
                 402220172 =
2018-09-21 23:56 METAR KGON 220356Z AUTO 21016KT 10SM OVC043 22/18 A2999 RMK AO2 SLP156 T02170183
                 =
2018-09-21 22:56 METAR KGON 220256Z AUTO 21019KT 10SM OVC046 22/18 A3000 RMK AO2 SLP160 T02170183
                 56012 =

Support USWX by starting your Amazon purchase here.